Time;durP1;ratioP1;P1;durP2;ratioP2;P2;SDS_P1;SDS_P2;PMS_P1;PMS_P2;Temp;Humidity;BMP_temperature;BMP_pressure;BME280_temperature;BME280_humidity;BME280_pressure;Samples;Min_cycle;Max_cycle;Signal;HPM_P1;HPM_P2
2022/01/08 00:01:01;;;;;;;7.77;4.00;;;;;;;0.92;100.00;127697.53;4992339;28;20022;-67
2022/01/08 00:03:27;;;;;;;7.80;3.90;;;;;;;0.90;100.00;127028.03;4989149;28;20060;-67
2022/01/08 00:05:56;;;;;;;9.53;4.37;;;;;;;0.96;100.00;127042.38;4998108;28;20046;-67
2022/01/08 00:08:24;;;;;;;8.27;4.07;;;;;;;1.01;100.00;127052.34;4995152;28;20072;-67
2022/01/08 00:10:50;;;;;;;9.80;4.43;;;;;;;1.04;100.00;126728.03;4987882;28;20037;-68
2022/01/08 00:13:15;;;;;;;10.27;4.17;;;;;;;1.10;100.00;126409.28;5003639;28;20033;-68
2022/01/08 00:15:41;;;;;;;12.80;4.57;;;;;;;1.12;100.00;125416.66;4989017;28;20152;-68
2022/01/08 00:18:07;;;;;;;10.60;4.53;;;;;;;1.17;100.00;124764.78;5013085;28;20025;-68
2022/01/08 00:20:35;;;;;;;11.87;4.60;;;;;;;1.16;100.00;123435.31;4990292;28;20045;-68
2022/01/08 00:23:01;;;;;;;8.70;3.90;;;;;;;1.15;100.00;122436.97;5005686;28;20029;-68
2022/01/08 00:25:27;;;;;;;13.93;4.70;;;;;;;1.10;100.00;121764.19;5010910;28;20030;-68
2022/01/08 00:27:53;;;;;;;11.27;5.10;;;;;;;0.97;100.00;120742.28;4997892;28;20126;-68
2022/01/08 00:30:19;;;;;;;9.93;4.47;;;;;;;0.93;100.00;120732.81;4994447;28;20501;-68
2022/01/08 00:32:45;;;;;;;14.23;6.03;;;;;;;0.92;100.00;121394.56;4984692;28;20035;-68
2022/01/08 00:35:11;;;;;;;15.37;5.20;;;;;;;0.84;100.00;121377.66;4991848;28;20044;-68
2022/01/08 00:37:37;;;;;;;11.60;5.57;;;;;;;0.80;100.00;122363.47;4998887;28;20029;-68
2022/01/08 00:40:11;;;;;;;13.57;5.33;;;;;;;0.76;100.00;123349.44;4999177;28;20037;-68
2022/01/08 00:42:38;;;;;;;13.27;5.70;;;;;;;0.71;100.00;123670.19;5003010;28;20025;-68
2022/01/08 00:45:05;;;;;;;13.07;5.73;;;;;;;0.57;100.00;124636.72;5004539;28;20113;-68
2022/01/08 00:47:31;;;;;;;15.53;7.13;;;;;;;0.42;100.00;125267.22;5012625;28;20088;-67
2022/01/08 00:49:57;;;;;;;14.97;6.80;;;;;;;0.42;100.00;127256.97;4999627;28;20033;-68
2022/01/08 00:52:23;;;;;;;12.20;5.53;;;;;;;0.48;100.00;129261.31;4987845;28;20065;-68
2022/01/08 00:54:48;;;;;;;21.00;6.93;;;;;;;0.61;100.00;131280.94;4995128;28;20121;-68
2022/01/08 00:57:13;;;;;;;17.17;6.83;;;;;;;0.78;100.00;132981.66;4987609;28;20038;-68
2022/01/08 00:59:39;;;;;;;17.83;7.13;;;;;;;0.87;100.00;133335.00;4995288;28;20037;-67
2022/01/08 01:02:05;;;;;;;15.10;6.60;;;;;;;0.93;100.00;133680.31;5006144;28;20032;-68
2022/01/08 01:04:31;;;;;;;16.07;6.70;;;;;;;1.05;100.00;133709.41;4997619;28;20133;-68
2022/01/08 01:06:57;;;;;;;15.47;7.23;;;;;;;1.08;100.00;133383.69;4989074;28;20049;-67
2022/01/08 01:09:22;;;;;;;14.97;6.17;;;;;;;1.16;100.00;132735.78;4985859;28;20833;-68
2022/01/08 01:11:48;;;;;;;16.17;6.33;;;;;;;1.19;100.00;131744.88;4986534;28;20037;-68
2022/01/08 01:14:13;;;;;;;16.00;6.90;;;;;;;1.07;100.00;130056.44;4984751;28;20034;-67
2022/01/08 01:16:39;;;;;;;16.67;6.87;;;;;;;1.16;100.00;129743.31;4986126;28;20414;-67
2022/01/08 01:19:05;;;;;;;16.80;7.33;;;;;;;1.20;100.00;128754.22;4987343;28;20482;-68
2022/01/08 01:21:31;;;;;;;18.20;8.40;;;;;;;1.11;100.00;128071.94;4985583;28;20045;-68
2022/01/08 01:23:59;;;;;;;17.93;7.03;;;;;;;1.12;100.00;127742.00;4997399;28;20561;-68
2022/01/08 01:26:28;;;;;;;17.77;7.60;;;;;;;1.14;100.00;127413.19;5003635;28;20186;-67
2022/01/08 01:29:03;;;;;;;14.70;6.97;;;;;;;1.17;100.00;126756.72;5002123;28;20041;-67
2022/01/08 01:47:53;;;;;;;17.97;7.97;;;;;;;1.10;100.00;126409.28;4961111;28;20515;-68
2022/01/08 01:50:19;;;;;;;17.77;7.80;;;;;;;1.13;100.00;127079.97;4992933;28;20072;-68
2022/01/08 01:52:44;;;;;;;19.03;8.37;;;;;;;1.22;100.00;127097.69;4992091;28;20034;-68
2022/01/08 01:55:10;;;;;;;16.73;7.90;;;;;;;1.23;100.00;126436.75;4992101;28;20033;-68
2022/01/08 01:57:37;;;;;;;18.70;8.77;;;;;;;1.09;100.00;125079.31;4994775;28;20037;-68
2022/01/08 02:00:06;;;;;;;16.93;8.03;;;;;;;1.05;100.00;125070.56;4989336;28;20107;-68
2022/01/08 02:02:31;;;;;;;18.30;8.27;;;;;;;0.92;100.00;124709.44;4991779;28;20120;-67
2022/01/08 02:04:57;;;;;;;20.33;9.50;;;;;;;0.83;100.00;125355.53;5005120;22;20402;-70
2022/01/08 02:07:26;;;;;;;21.03;8.10;;;;;;;0.86;100.00;126689.47;5002754;28;20026;-70
2022/01/08 02:09:54;;;;;;;21.40;9.40;;;;;;;0.78;100.00;127334.50;5002355;28;20030;-70
2022/01/08 02:12:22;;;;;;;22.20;9.50;;;;;;;0.67;100.00;127973.91;5000689;28;20474;-70
2022/01/08 02:14:48;;;;;;;19.27;8.87;;;;;;;0.64;100.00;129628.25;5003168;28;20483;-70
2022/01/08 02:17:14;;;;;;;24.07;9.37;;;;;;;0.62;100.00;130951.06;5002761;28;20034;-70
2022/01/08 02:19:40;;;;;;;21.13;8.07;;;;;;;0.69;100.00;132628.44;5012580;28;20556;-70
2022/01/08 02:22:10;;;;;;;21.83;9.27;;;;;;;0.71;100.00;133299.03;5005395;28;20057;-70
2022/01/08 02:24:36;;;;;;;26.40;10.20;;;;;;;0.84;100.00;134325.69;5002895;28;20510;-71
2022/01/08 02:27:02;;;;;;;24.90;10.20;;;;;;;0.91;100.00;135007.44;5002522;28;20029;-70
2022/01/08 02:29:27;;;;;;;20.00;8.43;;;;;;;0.92;100.00;135009.78;5002159;28;20023;-70
2022/01/08 02:32:03;;;;;;;22.07;9.17;;;;;;;0.95;100.00;135349.56;5005537;28;20030;-70
2022/01/08 02:34:29;;;;;;;20.53;9.07;;;;;;;0.99;100.00;135690.66;5000913;28;20080;-71
2022/01/08 02:36:56;;;;;;;23.03;9.50;;;;;;;0.96;100.00;135684.72;5002288;28;20117;-71
2022/01/08 02:39:22;;;;;;;23.27;9.47;;;;;;;0.84;100.00;135323.66;5007971;28;20040;-71
2022/01/08 02:41:53;;;;;;;27.97;10.27;;;;;;;0.89;100.00;135668.22;5002982;28;20113;-70
2022/01/08 02:44:19;;;;;;;23.50;9.43;;;;;;;0.82;100.00;135651.69;5002913;28;20126;-70
2022/01/08 02:46:44;;;;;;;21.53;9.87;;;;;;;0.83;100.00;136320.75;5000258;28;20459;-70
2022/01/08 02:49:09;;;;;;;21.63;9.57;;;;;;;0.70;100.00;136289.91;4997525;28;20041;-70
2022/01/08 02:51:35;;;;;;;23.93;9.83;;;;;;;0.71;100.00;136956.59;4997093;28;20473;-70
2022/01/08 02:54:03;;;;;;;24.47;10.27;;;;;;;0.69;100.00;137284.63;4997172;28;20187;-70
2022/01/08 02:56:28;;;;;;;21.30;9.67;;;;;;;0.71;100.00;137289.41;4997529;28;20040;-70
2022/01/08 02:58:54;;;;;;;25.30;10.30;;;;;;;0.68;100.00;137616.25;4997193;28;20037;-70
2022/01/08 03:01:20;;;;;;;24.97;11.03;;;;;;;0.77;100.00;138303.66;4997450;28;20044;-70
2022/01/08 03:03:45;;;;;;;23.13;10.20;;;;;;;0.68;100.00;137949.09;4996718;28;20501;-70
2022/01/08 03:06:10;;;;;;;24.47;10.73;;;;;;;0.74;100.00;138629.38;4997577;28;20506;-70
2022/01/08 03:08:36;;;;;;;23.93;9.90;;;;;;;0.77;100.00;138968.41;4999534;28;20189;-70
2022/01/08 03:11:01;;;;;;;26.90;10.90;;;;;;;0.73;100.00;138958.75;5002194;28;20036;-70
2022/01/08 03:13:27;;;;;;;27.17;11.50;;;;;;;0.77;100.00;139301.41;5001738;28;20026;-70
2022/01/08 03:15:52;;;;;;;26.40;10.97;;;;;;;0.82;100.00;138981.66;5001578;28;20026;-70
2022/01/08 03:18:18;;;;;;;25.27;11.73;;;;;;;0.90;100.00;138999.81;5001780;28;20036;-70
2022/01/08 03:20:53;;;;;;;27.23;12.07;;;;;;;0.90;100.00;138999.81;5000577;28;20524;-70
2022/01/08 03:23:19;;;;;;;34.13;12.23;;;;;;;0.93;100.00;138672.78;5001281;28;20044;-71
2022/01/08 03:25:45;;;;;;;26.20;11.97;;;;;;;0.90;100.00;138332.53;5001517;28;20029;-70
2022/01/08 03:28:11;;;;;;;25.90;10.90;;;;;;;0.86;100.00;137991.13;5001673;28;20037;-67
2022/01/08 03:30:38;;;;;;;30.20;11.20;;;;;;;0.73;100.00;137628.25;5001910;28;20056;-67
2022/01/08 03:33:04;;;;;;;24.70;11.53;;;;;;;0.57;100.00;137923.91;5005927;28;20034;-67
2022/01/08 03:35:29;;;;;;;35.93;12.20;;;;;;;0.44;100.00;138225.47;5001417;28;20025;-67
2022/01/08 03:37:55;;;;;;;22.53;9.87;;;;;;;0.31;100.00;138859.63;5000853;28;20060;-67
2022/01/08 03:40:20;;;;;;;25.20;11.00;;;;;;;0.35;100.00;140200.59;5001558;28;20047;-67
2022/01/08 03:42:45;;;;;;;26.03;11.17;;;;;;;0.22;100.00;140835.81;5001048;28;20033;-67
2022/01/08 03:45:11;;;;;;;27.20;10.50;;;;;;;0.10;100.00;141470.88;5001604;28;20339;-67
2022/01/08 03:50:17;;;;;;;28.43;10.83;;;;;;;-0.03;100.00;143438.72;4994764;28;20030;-69
2022/01/08 03:52:44;;;;;;;27.90;10.83;;;;;;;0.01;100.00;144778.53;5001445;28;20042;-67
2022/01/08 03:55:10;;;;;;;30.53;11.97;;;;;;;-0.07;100.00;146092.22;5001483;28;20025;-67
2022/01/08 03:57:35;;;;;;;30.30;10.43;;;;;;;-0.02;100.00;147438.13;5001367;28;20046;-67
2022/01/08 04:00:01;;;;;;;25.93;11.93;;;;;;;-0.14;100.00;147411.22;5001585;28;20026;-67
2022/01/08 04:02:26;;;;;;;31.63;12.23;;;;;;;-0.14;100.00;147411.22;5001215;28;20034;-67
2022/01/08 04:04:51;;;;;;;29.27;12.07;;;;;;;-0.18;100.00;147399.69;5000439;28;20046;-67
2022/01/08 04:07:17;;;;;;;33.00;12.63;;;;;;;-0.16;100.00;147404.81;5002360;28;20064;-67
2022/01/08 04:09:44;;;;;;;30.87;11.53;;;;;;;-0.08;100.00;147425.38;5001622;28;20590;-67
2022/01/08 04:12:10;;;;;;;28.87;11.73;;;;;;;-0.14;100.00;147411.22;5001222;28;20057;-67
2022/01/08 04:15:04;;;;;;;30.10;11.63;;;;;;;-0.15;100.00;147407.38;5000581;28;20425;-67
2022/01/08 04:17:23;;;;;;;27.97;12.27;;;;;;;-0.11;100.00;147418.97;4991961;28;20038;-67
2022/01/08 04:19:49;;;;;;;28.93;10.90;;;;;;;-0.21;100.00;147393.28;5000966;28;20040;-67
2022/01/08 04:22:16;;;;;;;33.03;12.13;;;;;;;-0.25;100.00;147383.00;5001049;28;20823;-67
2022/01/08 04:24:43;;;;;;;29.97;11.73;;;;;;;-0.22;100.00;147390.72;5001283;28;20444;-67
2022/01/08 04:27:09;;;;;;;27.83;12.00;;;;;;;-0.18;100.00;147400.97;5000999;28;20107;-67
2022/01/08 04:29:34;;;;;;;28.57;12.00;;;;;;;-0.12;100.00;147416.41;5000814;28;20033;-67
2022/01/08 04:32:00;;;;;;;31.83;11.27;;;;;;;-0.07;100.00;147429.19;5001344;28;20037;-67
2022/01/08 04:34:27;;;;;;;29.73;11.83;;;;;;;0.03;100.00;147452.31;5001157;28;20026;-67
2022/01/08 04:36:52;;;;;;;23.03;10.00;;;;;;;0.24;100.00;147506.16;5000723;28;20051;-67
2022/01/08 04:39:18;;;;;;;27.77;11.80;;;;;;;0.22;100.00;147502.31;5000943;28;20033;-67
2022/01/08 04:41:43;;;;;;;23.93;10.50;;;;;;;0.20;100.00;147497.19;5000920;28;20026;-67
2022/01/08 04:44:09;;;;;;;27.60;10.77;;;;;;;0.21;100.00;147498.47;5001179;28;20470;-67
2022/01/08 04:46:35;;;;;;;27.20;11.83;;;;;;;0.17;100.00;147489.50;5000641;28;20037;-67
2022/01/08 04:49:00;;;;;;;26.60;10.37;;;;;;;0.25;100.00;147510.06;5000986;28;20028;-68
2022/01/08 04:51:26;;;;;;;24.70;10.10;;;;;;;0.19;100.00;147493.34;5000608;28;20030;-67
2022/01/08 04:53:51;;;;;;;22.10;8.60;;;;;;;0.39;100.00;147544.69;5000823;28;20041;-67
2022/01/08 04:56:17;;;;;;;26.03;11.17;;;;;;;0.40;100.00;147547.25;5003861;28;20034;-67
2022/01/08 04:58:42;;;;;;;24.60;10.33;;;;;;;0.45;100.00;147560.09;5004442;28;20655;-67
2022/01/08 05:01:16;;;;;;;23.53;10.30;;;;;;;0.42;100.00;147552.38;5003685;28;20033;-67
2022/01/08 05:03:42;;;;;;;27.57;11.43;;;;;;;0.50;100.00;147571.66;5003827;28;20053;-67
2022/01/08 05:06:08;;;;;;;18.67;8.93;;;;;;;0.61;100.00;147598.56;5014582;28;20112;-67
2022/01/08 05:08:33;;;;;;;30.43;11.23;;;;;;;0.55;100.00;147585.75;5004851;28;20030;-67
2022/01/08 05:10:59;;;;;;;27.90;12.07;;;;;;;0.54;100.00;147583.19;5002600;28;20030;-67
2022/01/08 05:13:24;;;;;;;26.43;11.07;;;;;;;0.36;100.00;147536.97;5003921;28;20084;-67
2022/01/08 05:15:50;;;;;;;27.80;11.63;;;;;;;0.30;100.00;147521.59;5003978;28;20036;-67
2022/01/08 05:18:15;;;;;;;27.53;10.83;;;;;;;0.33;100.00;147528.00;5003498;28;20394;-67
2022/01/08 05:20:45;;;;;;;21.13;8.40;;;;;;;0.25;100.00;147508.78;5003790;28;20026;-67
2022/01/08 05:23:10;;;;;;;22.63;11.00;;;;;;;0.18;100.00;147492.06;5004406;28;20093;-67
2022/01/08 05:25:36;;;;;;;24.73;9.90;;;;;;;0.02;100.00;147451.03;5003853;28;20188;-67
2022/01/08 05:28:01;;;;;;;24.17;10.93;;;;;;;-0.04;100.00;147436.91;5003889;28;20022;-67
2022/01/08 05:30:28;;;;;;;27.00;11.20;;;;;;;-0.09;100.00;147422.81;5003207;28;20148;-67
2022/01/08 05:32:54;;;;;;;29.33;11.53;;;;;;;-0.02;100.00;147442.00;5006407;28;20385;-67
2022/01/08 05:35:21;;;;;;;28.37;12.03;;;;;;;0.01;100.00;147448.47;5004217;28;20282;-67
2022/01/08 05:37:47;;;;;;;24.10;10.83;;;;;;;-0.10;100.00;147421.53;5003327;28;20025;-67
2022/01/08 05:40:12;;;;;;;29.50;12.37;;;;;;;-0.18;100.00;147399.69;5003532;28;20033;-67
2022/01/08 05:42:39;;;;;;;29.67;12.37;;;;;;;-0.12;100.00;147416.41;5003156;28;20049;-67
2022/01/08 05:45:05;;;;;;;29.03;12.77;;;;;;;-0.07;100.00;147427.94;5003954;28;20117;-67
2022/01/08 05:47:32;;;;;;;27.40;11.60;;;;;;;-0.20;100.00;147395.84;5003591;28;20041;-67
2022/01/08 05:49:58;;;;;;;29.90;13.13;;;;;;;-0.14;100.00;147411.22;5003248;28;20022;-66
2022/01/08 05:52:24;;;;;;;30.40;14.00;;;;;;;-0.23;100.00;147386.88;5003636;28;20030;-67
2022/01/08 05:54:49;;;;;;;29.80;12.70;;;;;;;-0.23;100.00;147388.16;5003186;28;20168;-67
2022/01/08 05:57:15;;;;;;;29.07;12.00;;;;;;;-0.33;100.00;147362.50;5003503;28;20032;-67
2022/01/08 05:59:41;;;;;;;27.07;11.70;;;;;;;-0.24;100.00;147385.59;5003367;28;20022;-67
2022/01/08 06:02:08;;;;;;;31.13;13.03;;;;;;;-0.30;100.00;147371.47;5002594;28;20199;-67
2022/01/08 06:04:34;;;;;;;33.83;13.27;;;;;;;-0.31;100.00;147368.91;5002351;28;20057;-67
2022/01/08 06:06:59;;;;;;;35.17;14.40;;;;;;;-0.29;100.00;147372.75;5002109;28;20397;-67
2022/01/08 06:09:25;;;;;;;35.47;13.97;;;;;;;-0.41;100.00;147343.25;5002660;28;20612;-67
2022/01/08 06:11:50;;;;;;;36.20;14.53;;;;;;;-0.49;100.00;147321.44;5003136;28;20044;-67
2022/01/08 06:14:15;;;;;;;33.77;14.77;;;;;;;-0.60;100.00;147295.84;5002883;28;20030;-67
2022/01/08 06:16:41;;;;;;;40.73;16.33;;;;;;;-0.69;100.00;147272.75;5002937;28;20088;-67
2022/01/08 06:19:09;;;;;;;47.87;16.60;;;;;;;-0.64;100.00;147285.53;5002696;28;20021;-67
2022/01/08 06:21:36;;;;;;;39.93;15.53;;;;;;;-0.65;100.00;147281.69;5002936;28;20417;-67
2022/01/08 06:24:01;;;;;;;39.17;14.77;;;;;;;-0.72;100.00;147263.78;5003077;28;20053;-67
2022/01/08 06:26:26;;;;;;;39.20;15.90;;;;;;;-0.63;100.00;147288.09;5002431;28;20032;-67
2022/01/08 06:28:52;;;;;;;37.20;15.67;;;;;;;-0.57;100.00;147300.97;5002755;28;20034;-67
2022/01/08 06:31:19;;;;;;;41.40;15.33;;;;;;;-0.57;100.00;147302.22;5006272;28;20029;-67
2022/01/08 06:33:44;;;;;;;37.90;15.10;;;;;;;-0.60;100.00;147295.84;5009193;28;20485;-67
2022/01/08 06:36:10;;;;;;;37.50;15.40;;;;;;;-0.45;100.00;147333.00;5002433;28;20123;-67
2022/01/08 06:38:35;;;;;;;38.80;14.53;;;;;;;-0.46;100.00;147330.47;5001674;28;20390;-67
2022/01/08 06:41:01;;;;;;;41.93;16.33;;;;;;;-0.43;100.00;147336.84;5002414;28;20029;-67
2022/01/08 06:43:26;;;;;;;41.97;16.23;;;;;;;-0.54;100.00;147308.63;5002297;28;20026;-67
2022/01/08 06:45:51;;;;;;;45.30;16.37;;;;;;;-0.43;100.00;147336.84;5002495;28;20032;-67
2022/01/08 06:48:17;;;;;;;37.87;15.50;;;;;;;-0.56;100.00;147303.50;5001816;28;20025;-67
2022/01/08 06:50:42;;;;;;;43.10;16.87;;;;;;;-0.52;100.00;147313.75;5001830;28;20025;-67
2022/01/08 06:53:08;;;;;;;40.20;16.97;;;;;;;-0.62;100.00;147289.38;5001940;28;20231;-67
2022/01/08 06:55:33;;;;;;;54.93;18.20;;;;;;;-0.58;100.00;147299.69;5002063;28;20030;-67
2022/01/08 06:57:59;;;;;;;40.23;15.43;;;;;;;-0.69;100.00;147272.75;5002067;28;20045;-67
2022/01/08 07:00:25;;;;;;;42.47;19.40;;;;;;;-0.71;100.00;147266.34;5002216;28;20026;-67
2022/01/08 07:02:50;;;;;;;46.00;17.13;;;;;;;-0.73;100.00;147261.19;5001533;28;20040;-67
2022/01/08 07:05:16;;;;;;;42.53;16.70;;;;;;;-0.73;100.00;147262.44;5001831;28;20056;-67
2022/01/08 07:07:41;;;;;;;46.63;18.33;;;;;;;-0.75;100.00;147257.34;5001837;28;20615;-67
2022/01/08 07:10:07;;;;;;;45.47;18.47;;;;;;;-0.71;100.00;147267.63;5001966;28;21910;-67
2022/01/08 07:12:33;;;;;;;47.17;16.93;;;;;;;-0.70;100.00;147270.19;5000578;28;20029;-67
2022/01/08 07:14:58;;;;;;;49.37;18.13;;;;;;;-0.64;100.00;147285.53;5001620;28;20046;-67
2022/01/08 07:17:23;;;;;;;49.80;17.57;;;;;;;-0.70;100.00;147268.91;5001627;28;20727;-67
2022/01/08 07:19:49;;;;;;;45.73;17.40;;;;;;;-0.69;100.00;147271.47;5001641;28;20379;-67
2022/01/08 07:22:15;;;;;;;44.77;17.97;;;;;;;-0.70;100.00;147270.19;5001094;28;20129;-67
2022/01/08 07:24:40;;;;;;;43.60;18.30;;;;;;;-0.72;100.00;147265.06;5000882;28;20105;-67
2022/01/08 07:27:06;;;;;;;47.07;18.53;;;;;;;-0.78;100.00;147249.66;5001402;28;20034;-67
2022/01/08 07:29:31;;;;;;;43.70;17.37;;;;;;;-0.71;100.00;147267.63;5001177;28;20037;-67
2022/01/08 07:31:56;;;;;;;47.30;18.30;;;;;;;-0.79;100.00;147247.09;5003123;28;20030;-67
2022/01/08 07:34:22;;;;;;;63.80;18.67;;;;;;;-0.78;100.00;147249.66;4996172;28;20037;-67
2022/01/08 07:36:48;;;;;;;47.03;18.07;;;;;;;-0.68;100.00;147274.03;5000196;28;20033;-67
2022/01/08 07:39:13;;;;;;;40.53;13.90;;;;;;;-0.55;100.00;147306.06;5000920;28;20040;-67
2022/01/08 07:41:39;;;;;;;41.20;16.57;;;;;;;-0.68;100.00;147275.31;5001551;28;20108;-67
2022/01/08 07:44:05;;;;;;;40.87;16.87;;;;;;;-0.77;100.00;147252.22;5000993;28;20025;-67
2022/01/08 07:46:30;;;;;;;42.63;17.10;;;;;;;-0.76;100.00;147254.78;5001115;28;20021;-67
2022/01/08 07:48:56;;;;;;;55.87;18.10;;;;;;;-0.64;100.00;147285.53;4999869;28;20025;-67
2022/01/08 07:51:21;;;;;;;47.47;17.33;;;;;;;-0.71;100.00;147266.34;5001077;28;20022;-67
2022/01/08 07:53:47;;;;;;;46.63;16.30;;;;;;;-0.74;100.00;147259.91;5001905;28;20026;-67
2022/01/08 07:56:12;;;;;;;37.10;15.13;;;;;;;-0.52;100.00;147313.75;5000615;28;20530;-67
2022/01/08 07:58:37;;;;;;;45.30;18.33;;;;;;;-0.68;100.00;147275.31;5000601;28;20034;-67
2022/01/08 08:01:03;;;;;;;45.17;17.37;;;;;;;-0.74;100.00;147259.91;5001331;28;20038;-67
2022/01/08 08:03:28;;;;;;;44.30;18.43;;;;;;;-0.63;100.00;147288.09;5000670;28;20383;-67
2022/01/08 08:05:54;;;;;;;46.80;17.17;;;;;;;-0.60;100.00;147294.56;5005888;28;20034;-67
2022/01/08 08:08:20;;;;;;;45.87;17.57;;;;;;;-0.57;100.00;147300.97;5001373;28;20038;-67
2022/01/08 08:10:49;;;;;;;43.73;16.80;;;;;;;-0.51;100.00;147316.31;5001343;28;20033;-67
2022/01/08 08:13:18;;;;;;;44.60;17.53;;;;;;;-0.54;100.00;147308.63;5000966;28;20038;-67
2022/01/08 08:15:44;;;;;;;45.80;18.23;;;;;;;-0.52;100.00;147313.75;5001287;28;20038;-67
2022/01/08 08:18:11;;;;;;;41.80;17.00;;;;;;;-0.32;100.00;147365.06;5001160;28;20203;-67
2022/01/08 08:20:36;;;;;;;43.37;17.27;;;;;;;-0.26;100.00;147380.44;5000099;28;20394;-67
2022/01/08 08:23:02;;;;;;;41.07;16.70;;;;;;;-0.26;100.00;147380.44;5001197;28;20033;-67
2022/01/08 08:25:27;;;;;;;38.73;17.17;;;;;;;-0.22;100.00;147390.72;5000413;28;20029;-67
2022/01/08 08:27:53;;;;;;;36.93;15.93;;;;;;;-0.05;100.00;147434.31;5000428;28;20084;-67
2022/01/08 08:30:20;;;;;;;36.37;16.47;;;;;;;0.18;100.00;147490.78;5002671;28;20418;-67
2022/01/08 08:32:47;;;;;;;31.50;14.70;;;;;;;0.21;100.00;147499.75;5012414;28;20037;-67
2022/01/08 08:35:12;;;;;;;35.17;14.90;;;;;;;0.41;100.00;147549.81;5005139;28;20776;-67
2022/01/08 08:37:40;;;;;;;29.47;11.43;;;;;;;0.52;100.00;147578.06;5003935;28;20042;-67
2022/01/08 08:40:08;;;;;;;36.13;13.70;;;;;;;0.67;100.00;147614.00;5004204;28;20040;-67
2022/01/08 08:42:35;;;;;;;32.70;14.13;;;;;;;0.78;100.00;147642.25;5005064;28;20029;-67
2022/01/08 08:45:01;;;;;;;29.80;11.43;;;;;;;0.98;100.00;147693.63;5003682;28;20057;-67
2022/01/08 08:47:27;;;;;;;23.97;11.40;;;;;;;1.07;100.00;147716.72;5004483;28;20030;-67
2022/01/08 08:49:53;;;;;;;24.77;10.83;;;;;;;1.22;100.00;147752.72;5002614;28;20026;-67
2022/01/08 08:52:19;;;;;;;20.17;9.70;;;;;;;1.15;100.00;147737.28;5004293;28;20048;-67
2022/01/08 08:54:45;;;;;;;24.27;10.70;;;;;;;1.28;100.00;147769.38;5004553;28;20041;-67
2022/01/08 08:57:10;;;;;;;21.20;10.13;;;;;;;1.48;100.00;147818.22;5004382;28;20033;-67
2022/01/08 08:59:37;;;;;;;17.73;9.43;;;;;;;1.63;100.00;147858.03;5001616;28;20070;-67
2022/01/08 09:02:03;;;;;;;17.67;9.70;;;;;;;1.57;100.00;144163.59;5004262;28;20693;-67
2022/01/08 09:04:29;;;;;;;20.90;9.17;;;;;;;1.48;100.00;139804.56;5001514;28;20046;-67
2022/01/08 09:06:57;;;;;;;20.60;8.83;;;;;;;1.08;100.00;135379.00;5004697;28;20088;-67
2022/01/08 09:09:24;;;;;;;15.87;8.70;;;;;;;0.91;100.00;133676.84;4997334;28;20492;-67
2022/01/08 09:11:49;;;;;;;18.70;8.70;;;;;;;0.87;100.00;133002.50;5000249;28;20044;-67
2022/01/08 09:14:19;;;;;;;21.33;9.60;;;;;;;0.87;100.00;132337.56;5007009;28;20025;-67
2022/01/08 09:16:48;;;;;;;20.53;10.00;;;;;;;0.92;100.00;131683.03;5005360;28;20124;-67
2022/01/08 09:19:14;;;;;;;22.27;10.13;;;;;;;0.94;100.00;130691.63;4998745;28;20033;-67
2022/01/08 09:21:40;;;;;;;20.33;10.60;;;;;;;0.91;100.00;129023.69;5000526;28;20041;-67
2022/01/08 09:24:06;;;;;;;22.87;10.47;;;;;;;0.94;100.00;128034.03;5001502;28;20041;-67
2022/01/08 09:26:32;;;;;;;21.13;10.60;;;;;;;0.94;100.00;126706.00;4996357;28;20484;-67
2022/01/08 09:28:57;;;;;;;21.93;9.50;;;;;;;0.96;100.00;125382.81;4999166;28;20029;-67
2022/01/08 09:31:23;;;;;;;22.07;10.50;;;;;;;0.95;100.00;123721.84;5001247;28;20181;-67
2022/01/08 09:33:48;;;;;;;25.17;11.23;;;;;;;0.92;100.00;122389.03;4997078;28;20044;-67
2022/01/08 09:36:14;;;;;;;25.50;11.67;;;;;;;0.96;100.00;121071.56;4993591;28;20030;-67
2022/01/08 09:38:39;;;;;;;21.73;8.90;;;;;;;1.01;100.00;119424.19;5002352;28;20037;-67
2022/01/08 09:41:05;;;;;;;19.63;10.77;;;;;;;1.02;100.00;117770.13;5013686;28;20033;-67
2022/01/08 09:43:31;;;;;;;21.93;10.27;;;;;;;1.05;100.00;116121.81;5001957;28;20038;-68
2022/01/08 09:45:57;;;;;;;25.43;10.97;;;;;;;1.03;100.00;114794.03;4996668;28;20025;-68
2022/01/08 09:48:22;;;;;;;23.27;10.77;;;;;;;1.11;100.00;113485.59;4999784;28;20100;-68
2022/01/08 09:50:48;;;;;;;28.50;11.50;;;;;;;1.20;100.00;111188.19;5009390;28;20030;-68
2022/01/08 09:53:13;;;;;;;18.23;8.70;;;;;;;1.23;100.00;107227.59;4999779;28;20049;-68
2022/01/08 09:55:39;;;;;;;25.53;10.50;;;;;;;1.27;100.00;103603.75;4996396;28;20042;-68
2022/01/08 09:58:04;;;;;;;22.17;9.77;;;;;;;1.29;100.00;99980.59;4996652;28;20095;-68
2022/01/08 10:00:35;;;;;;;19.30;9.07;;;;;;;1.31;100.00;96359.19;4995868;28;20125;-68
2022/01/08 10:03:24;;;;;;;25.30;10.20;;;;;;;1.35;100.00;92416.53;4980952;28;20030;-68
2022/01/08 10:05:54;;;;;;;27.80;11.47;;;;;;;1.35;100.00;89786.09;4997099;28;20359;-68
2022/01/08 10:08:28;;;;;;;25.87;10.57;;;;;;;1.40;100.00;85851.66;4994658;28;20758;-68
2022/01/08 10:10:56;;;;;;;25.30;12.07;;;;;;;1.45;100.00;83561.41;4990836;28;20036;-68
2022/01/08 10:13:25;;;;;;;21.60;9.80;;;;;;;1.49;100.00;79631.53;4991728;28;20044;-68
2022/01/08 10:18:37;;;;;;;25.87;11.50;;;;;;;1.53;100.00;71778.59;4996271;28;20055;-68
2022/01/08 10:21:22;;;;;;;28.43;11.70;;;;;;;1.58;100.00;68842.38;4990984;28;20624;-68
2022/01/08 10:24:05;;;;;;;19.63;9.50;;;;;;;1.61;100.00;63294.47;4993305;28;20065;-68
2022/01/08 10:26:39;;;;;;;15.90;8.77;;;;;;;1.63;100.00;55799.97;4991495;28;20044;-68
2022/01/08 10:29:14;;;;;;;18.57;8.87;;;;;;;1.63;100.00;51569.50;4992279;28;20446;-68
2022/01/08 10:31:54;;;;;;;18.97;8.73;;;;;;;1.69;100.00;50274.44;4992795;28;20034;-68
2022/01/08 10:34:24;;;;;;;20.47;8.73;;;;;;;1.70;100.00;42482.56;4992989;28;20042;-68
2022/01/08 10:36:53;;;;;;;13.70;6.57;;;;;;;1.84;100.00;36010.50;4990173;28;20265;-68
2022/01/08 10:39:29;;;;;;;16.77;8.63;;;;;;;1.93;100.00;28899.81;4992510;28;20045;-68
2022/01/08 10:41:56;;;;;;;21.07;8.30;;;;;;;2.00;100.00;19544.25;4992465;28;20584;-68
2022/01/08 10:44:24;;;;;;;22.53;9.20;;;;;;;2.15;100.00;10857.44;4990759;28;20820;-68
2022/01/08 10:46:58;;;;;;;13.70;7.03;;;;;;;2.25;100.00;-1016.78;4993766;28;20199;-69
2022/01/08 10:49:33;;;;;;;14.80;7.10;;;;;;;2.37;100.00;-18589.72;4990204;28;20038;-69
2022/01/08 10:52:00;;;;;;;17.03;6.67;;;;;;;2.50;100.00;-19232.47;4990966;28;20318;-69
2022/01/08 10:54:27;;;;;;;20.87;7.43;;;;;;;2.67;100.00;-19236.84;4989992;28;20509;-69
2022/01/08 10:57:00;;;;;;;13.47;6.07;;;;;;;2.83;100.00;-19241.09;4990722;28;20034;-69
2022/01/08 10:59:26;;;;;;;11.77;6.20;;;;;;;3.04;100.00;-19246.53;4992631;28;20557;-69
2022/01/08 11:01:56;;;;;;;15.70;6.67;;;;;;;3.07;100.00;-19247.31;4986879;28;20061;-69
2022/01/08 11:04:34;;;;;;;13.77;6.43;;;;;;;3.03;100.00;-19246.41;4991503;28;20042;-69
2022/01/08 11:07:03;;;;;;;13.70;6.33;;;;;;;3.01;100.00;-19245.72;4990003;28;20451;-69
2022/01/08 11:09:29;;;;;;;14.70;5.80;;;;;;;2.91;100.00;-19243.34;4990766;28;20426;-69
2022/01/08 11:11:57;;;;;;;16.60;6.83;;;;;;;2.82;100.00;-19240.97;4989915;28;20489;-69
2022/01/08 11:17:25;;;;;;;16.13;6.80;;;;;;;2.72;100.00;-19238.16;4990005;28;20119;-69
2022/01/08 11:20:13;;;;;;;15.10;6.07;;;;;;;2.76;100.00;-19239.22;4990709;28;20533;-69
2022/01/08 11:22:47;;;;;;;14.47;6.60;;;;;;;2.85;100.00;-19241.63;4989755;28;20272;-69
2022/01/08 11:25:15;;;;;;;15.10;5.67;;;;;;;2.91;100.00;-19243.22;4990291;28;20033;-69
2022/01/08 11:27:43;;;;;;;12.67;6.00;;;;;;;3.05;100.00;-19246.78;4990949;28;20109;-69
2022/01/08 11:30:19;;;;;;;13.07;5.67;;;;;;;3.15;100.00;-19249.44;4991725;28;20061;-69
2022/01/08 11:32:46;;;;;;;12.33;6.03;;;;;;;3.17;100.00;-19249.97;4994476;28;20751;-69